KVTN/VTN METAR and TAF weather

Enter ICAO airport designator
Station Type Date Time Source
KVTN METAR 2020/09/30 14:52 UTC NOAA

KVTN 301452Z AUTO 33015G24KT 10SM BKN100 14/00 A3018 RMK AO2 PK WND 32026/1417 SLP213 T01390000 51034


Station Type Date Time Source
KVTN Decoded METAR 2020/09/30 14:52 UTC NOAA

MILLER FIELD - VALENTINE, NE, NE, United States (KVTN) 42-52N 100-33W 788M
Sep 30, 2020 - 10:52 AM EDT / 2020.09.30 1452 UTC
Wind: from the NNW (330 degrees) at 17 MPH (15 KT) gusting to 28 MPH (24 KT):0
Visibility: 10 mile(s):0
Sky conditions: mostly cloudy
Temperature: 57.0 F (13.9 C)
Dew Point: 32.0 F (0.0 C)
Relative Humidity: 38%
Pressure (altimeter): 30.18 in. Hg (1022 hPa)
Pressure tendency: 0.10 inches (3.4 hPa) higher than three hours ago
ob: KVTN 301452Z AUTO 33015G24KT 10SM BKN100 14/00 A3018 RMK AO2 PK WND 32026/1417 SLP213 T01390000 51034
cycle: 15

Station Type Date Time Source
KVTN TAF 2020/09/30 12:22 UTC NOAA

TAF KVTN 301120Z 3012/0112 33019G27KT P6SM FEW250
FM302300 32015KT P6SM FEW250
FM010400 31009KT P6SM SKC

Example: see airport list